createdAt,value
2022-11-14T00:01:21.532Z,23.52
2022-11-14T00:03:51.458Z,23.08
2022-11-14T00:06:21.217Z,20.95
2022-11-14T00:08:49.063Z,26.20
2022-11-14T00:11:16.979Z,20.75
2022-11-14T00:13:45.185Z,23.90
2022-11-14T00:16:13.090Z,22.92
2022-11-14T00:18:40.997Z,22.45
2022-11-14T00:21:08.937Z,23.15
2022-11-14T00:23:38.162Z,23.83
2022-11-14T00:26:06.032Z,21.55
2022-11-14T00:28:34.118Z,23.05
2022-11-14T00:31:02.105Z,22.13
2022-11-14T00:33:29.977Z,23.65
2022-11-14T00:35:58.237Z,21.85
2022-11-14T00:38:26.215Z,22.92
2022-11-14T00:40:55.706Z,21.75
2022-11-14T00:43:23.681Z,25.20
2022-11-14T00:45:51.601Z,32.75
2022-11-14T00:48:19.577Z,24.50
2022-11-14T00:50:47.599Z,24.88
2022-11-14T00:53:15.632Z,22.38
2022-11-14T00:55:44.691Z,23.25
2022-11-14T00:58:14.004Z,24.40
2022-11-14T01:00:42.046Z,23.30
2022-11-14T01:03:10.151Z,26.88
2022-11-14T01:05:42.325Z,22.83
2022-11-14T01:08:10.401Z,27.23
2022-11-14T01:10:40.961Z,26.00
2022-11-14T01:13:09.317Z,24.50
2022-11-14T01:15:41.613Z,23.58
2022-11-14T01:18:10.964Z,23.58
2022-11-14T01:20:40.191Z,31.15
2022-11-14T01:23:08.157Z,32.15
2022-11-14T01:25:36.647Z,22.88
2022-11-14T01:28:07.511Z,77.47
2022-11-14T01:30:35.667Z,29.05
2022-11-14T01:33:05.588Z,25.35
2022-11-14T01:35:34.439Z,26.13
2022-11-14T01:38:02.403Z,25.23
2022-11-14T01:40:30.694Z,23.52
2022-11-14T01:43:30.397Z,25.45
2022-11-14T01:46:01.327Z,25.50
2022-11-14T01:48:36.059Z,24.20
2022-11-14T01:51:13.917Z,33.53
2022-11-14T01:53:42.409Z,21.38
2022-11-14T01:56:14.154Z,41.35
2022-11-14T01:58:46.985Z,22.33
2022-11-14T02:01:14.959Z,32.70
2022-11-14T02:03:46.901Z,66.95
2022-11-14T02:06:17.908Z,75.28
2022-11-14T02:08:46.407Z,54.28
2022-11-14T02:11:14.354Z,26.17
2022-11-14T02:13:42.318Z,72.10
2022-11-14T02:16:10.353Z,38.70
2022-11-14T02:18:38.323Z,163.70
2022-11-14T02:21:07.889Z,42.10
2022-11-14T02:23:35.806Z,68.22
2022-11-14T02:26:03.726Z,43.83
2022-11-14T02:28:31.899Z,86.05
2022-11-14T02:31:00.023Z,33.03
2022-11-14T02:33:28.162Z,37.80
2022-11-14T02:35:56.189Z,30.10
2022-11-14T02:38:25.474Z,35.88
2022-11-14T02:40:53.419Z,30.77
2022-11-14T02:43:21.361Z,70.05
2022-11-14T02:45:49.282Z,28.63
2022-11-14T02:48:17.177Z,32.58
2022-11-14T02:50:45.137Z,51.05
2022-11-14T02:53:13.009Z,31.55
2022-11-14T02:55:42.234Z,47.90
2022-11-14T02:58:10.113Z,75.82
2022-11-14T03:00:53.274Z,31.42
2022-11-14T03:03:25.985Z,25.93
2022-11-14T03:05:54.337Z,64.72
2022-11-14T03:08:22.322Z,39.22
2022-11-14T03:10:51.572Z,39.03
2022-11-14T03:13:19.589Z,26.48
2022-11-14T03:15:47.517Z,46.03
2022-11-14T03:18:15.385Z,23.77
2022-11-14T03:20:43.269Z,65.40
2022-11-14T03:23:11.128Z,84.57
2022-11-14T03:25:39.043Z,27.70
2022-11-14T03:28:08.288Z,94.80
2022-11-14T03:30:36.176Z,22.27
2022-11-14T03:33:04.040Z,25.65
2022-11-14T03:35:31.923Z,37.80
2022-11-14T03:37:59.770Z,49.22
2022-11-14T03:40:27.682Z,29.88
2022-11-14T03:42:57.837Z,27.17
2022-11-14T03:45:27.091Z,32.97
2022-11-14T03:47:56.244Z,23.00
2022-11-14T03:50:24.391Z,19.10
2022-11-14T03:52:52.325Z,19.60
2022-11-14T03:55:20.227Z,41.65
2022-11-14T03:57:48.093Z,43.70
2022-11-14T04:00:16.456Z,23.48
2022-11-14T04:02:45.661Z,19.33
2022-11-14T04:05:13.559Z,31.50
2022-11-14T04:07:41.476Z,21.30
2022-11-14T04:10:09.974Z,27.13
2022-11-14T04:12:37.839Z,16.00
2022-11-14T04:15:06.340Z,30.30
2022-11-14T04:17:39.511Z,25.67
2022-11-14T04:20:10.457Z,18.65
2022-11-14T04:22:38.607Z,18.70
2022-11-14T04:25:07.439Z,16.27
2022-11-14T04:27:35.400Z,18.77
2022-11-14T04:30:03.363Z,19.48
2022-11-14T04:32:31.271Z,16.40
2022-11-14T04:34:59.362Z,16.83
2022-11-14T04:37:28.598Z,15.88
2022-11-14T04:39:58.689Z,17.45
2022-11-14T04:42:26.722Z,16.30
2022-11-14T04:44:54.708Z,14.95
2022-11-14T04:47:22.687Z,18.17
2022-11-14T04:49:50.706Z,18.27
2022-11-14T04:52:18.826Z,20.83
2022-11-14T04:54:48.165Z,18.38
2022-11-14T04:57:16.528Z,21.60
2022-11-14T04:59:44.758Z,18.42
2022-11-14T05:02:12.690Z,23.48
2022-11-14T05:04:40.575Z,33.83
2022-11-14T05:07:08.528Z,55.50
2022-11-14T05:09:37.242Z,67.78
2022-11-14T05:12:07.468Z,28.73
2022-11-14T05:14:35.355Z,29.27
2022-11-14T05:17:03.267Z,21.20
2022-11-14T05:19:31.266Z,16.65
2022-11-14T05:21:59.152Z,16.85
2022-11-14T05:24:28.510Z,15.80
2022-11-14T05:26:56.391Z,18.63
2022-11-14T05:29:25.677Z,15.45
2022-11-14T05:31:53.640Z,17.27
2022-11-14T05:34:21.545Z,19.20
2022-11-14T05:36:49.502Z,16.48
2022-11-14T05:39:17.528Z,18.55
2022-11-14T05:41:45.529Z,18.63
2022-11-14T05:44:13.545Z,17.38
2022-11-14T05:46:43.077Z,14.30
2022-11-14T05:49:10.952Z,14.40
2022-11-14T05:51:38.839Z,18.40
2022-11-14T05:54:07.001Z,18.60
2022-11-14T05:56:34.845Z,20.27
2022-11-14T05:59:02.835Z,19.23
2022-11-14T06:01:30.801Z,19.75
2022-11-14T06:04:00.110Z,18.42
2022-11-14T06:06:28.068Z,19.90
2022-11-14T06:08:56.181Z,19.10
2022-11-14T06:11:24.330Z,18.98
2022-11-14T06:13:52.278Z,16.40
2022-11-14T06:16:20.880Z,17.58
2022-11-14T06:18:49.190Z,19.58
2022-11-14T06:21:21.232Z,21.98
2022-11-14T06:23:49.828Z,21.30
2022-11-14T06:26:23.274Z,22.38
2022-11-14T06:28:52.370Z,22.13
2022-11-14T06:31:21.360Z,19.90
2022-11-14T06:33:49.643Z,22.17
2022-11-14T06:36:19.191Z,19.00
2022-11-14T06:38:47.220Z,21.50
2022-11-14T06:41:17.097Z,18.60
2022-11-14T06:43:46.802Z,21.73
2022-11-14T06:46:16.801Z,21.23
2022-11-14T06:48:45.900Z,18.83
2022-11-14T06:51:14.724Z,21.35
2022-11-14T06:53:44.497Z,21.98
2022-11-14T06:56:13.755Z,19.40
2022-11-14T06:58:44.058Z,21.45
2022-11-14T07:01:14.235Z,20.85
2022-11-14T07:03:42.760Z,20.63
2022-11-14T07:06:12.697Z,19.27
2022-11-14T07:08:40.631Z,19.65
2022-11-14T07:11:11.949Z,19.65
2022-11-14T07:13:40.301Z,19.98
2022-11-14T07:16:08.791Z,19.48
2022-11-14T07:18:36.735Z,20.30
2022-11-14T07:21:06.930Z,18.63
2022-11-14T07:23:36.422Z,22.75
2022-11-14T07:26:07.879Z,19.67
2022-11-14T07:28:38.707Z,21.60
2022-11-14T07:31:08.422Z,19.00
2022-11-14T07:33:36.470Z,19.40
2022-11-14T07:36:04.804Z,22.25
2022-11-14T07:38:33.604Z,21.30
2022-11-14T07:41:03.087Z,21.40
2022-11-14T07:43:31.184Z,20.48
2022-11-14T07:46:02.328Z,18.92
2022-11-14T07:48:30.746Z,22.05
2022-11-14T07:51:00.917Z,21.27
2022-11-14T07:53:30.126Z,22.15
2022-11-14T07:55:58.458Z,21.33
2022-11-14T07:58:26.441Z,16.98
2022-11-14T08:00:54.453Z,20.33
2022-11-14T08:03:23.770Z,14.80
2022-11-14T08:05:51.637Z,14.93
2022-11-14T08:08:19.530Z,16.30
2022-11-14T08:10:47.384Z,13.27
2022-11-14T08:13:31.611Z,15.00
2022-11-14T08:16:01.037Z,13.02
2022-11-14T08:18:30.836Z,12.45
2022-11-14T08:20:59.164Z,12.50
2022-11-14T08:23:27.054Z,11.77
2022-11-14T08:25:55.024Z,11.68
2022-11-14T08:28:22.997Z,10.63
2022-11-14T08:30:50.845Z,8.55
2022-11-14T08:33:18.737Z,8.57
2022-11-14T08:35:48.253Z,9.15
2022-11-14T08:38:16.226Z,6.80
2022-11-14T08:40:44.167Z,12.55
2022-11-14T08:43:12.095Z,6.53
2022-11-14T08:45:40.024Z,14.43
2022-11-14T08:48:07.993Z,5.68
2022-11-14T08:50:35.921Z,5.40
2022-11-14T08:53:05.175Z,5.45
2022-11-14T08:55:33.076Z,3.80
2022-11-14T08:58:01.091Z,4.80
2022-11-14T09:00:29.118Z,4.05
2022-11-14T09:02:57.140Z,6.15
2022-11-14T09:05:25.040Z,6.60
2022-11-14T09:07:52.915Z,5.75
2022-11-14T09:10:22.324Z,3.60
2022-11-14T09:12:56.652Z,3.10
2022-11-14T09:15:24.982Z,5.28
2022-11-14T09:17:54.574Z,3.30
2022-11-14T09:20:25.918Z,4.63
2022-11-14T09:22:59.611Z,5.38
2022-11-14T09:25:29.139Z,5.43
2022-11-14T09:27:57.635Z,4.68
2022-11-14T09:30:25.632Z,4.72
2022-11-14T09:32:53.716Z,4.55
2022-11-14T09:35:21.666Z,4.72
2022-11-14T09:37:49.785Z,5.68
2022-11-14T09:40:18.011Z,6.63
2022-11-14T09:43:11.115Z,4.38
2022-11-14T09:45:43.191Z,8.02
2022-11-14T09:48:16.145Z,7.68
2022-11-14T09:50:49.354Z,4.95
2022-11-14T09:53:24.935Z,3.90
2022-11-14T09:55:57.150Z,5.97
2022-11-14T09:58:28.370Z,7.30
2022-11-14T10:01:06.495Z,3.25
2022-11-14T10:03:50.974Z,4.15
2022-11-14T10:06:25.743Z,7.68
2022-11-14T10:09:08.964Z,3.90
2022-11-14T10:11:43.230Z,5.13
2022-11-14T10:14:44.206Z,3.75
2022-11-14T10:17:24.783Z,3.58
2022-11-14T10:20:00.930Z,6.07
2022-11-14T10:22:49.838Z,4.40
2022-11-14T10:25:25.175Z,3.17
2022-11-14T10:28:05.391Z,4.05
2022-11-14T10:30:41.703Z,1.83
2022-11-14T10:33:21.254Z,3.33
2022-11-14T10:35:54.212Z,4.53
2022-11-14T10:38:28.788Z,3.05
2022-11-14T10:41:01.762Z,1.77
2022-11-14T10:43:35.072Z,2.22
2022-11-14T10:46:09.171Z,3.17
2022-11-14T10:48:40.147Z,2.47
2022-11-14T10:51:13.999Z,2.35
2022-11-14T10:53:52.950Z,2.25
2022-11-14T10:56:20.850Z,6.00
2022-11-14T10:58:50.072Z,2.38
2022-11-14T11:01:37.696Z,4.90
2022-11-14T11:04:21.608Z,7.13
2022-11-14T11:06:51.210Z,2.25
2022-11-14T11:09:44.885Z,3.28
2022-11-14T11:12:17.727Z,2.67
2022-11-14T11:14:46.725Z,2.83
2022-11-14T11:17:29.537Z,3.13
2022-11-14T11:20:26.426Z,2.55
2022-11-14T11:23:04.374Z,2.85
2022-11-14T11:25:34.070Z,2.45
2022-11-14T11:28:06.826Z,2.70
2022-11-14T11:30:35.137Z,2.40
2022-11-14T11:33:25.364Z,2.80
2022-11-14T11:35:57.211Z,2.08
2022-11-14T11:38:27.865Z,2.83
2022-11-14T11:41:01.454Z,2.45
2022-11-14T11:43:40.088Z,1.98
2022-11-14T11:46:16.694Z,2.88
2022-11-14T11:48:49.184Z,1.75
2022-11-14T11:51:20.802Z,2.75
2022-11-14T11:53:57.743Z,4.13
2022-11-14T11:56:31.031Z,2.92
2022-11-14T11:59:06.797Z,3.33
2022-11-14T12:01:34.793Z,3.47
2022-11-14T12:04:04.348Z,2.35
2022-11-14T12:06:41.181Z,2.72
2022-11-14T12:09:18.847Z,1.52
2022-11-14T12:11:52.399Z,1.90
2022-11-14T12:14:44.214Z,1.90
2022-11-14T12:17:44.620Z,1.90
2022-11-14T12:20:30.352Z,3.13
2022-11-14T12:23:35.225Z,1.88
2022-11-14T12:26:11.630Z,2.15
2022-11-14T12:29:04.109Z,1.77
2022-11-14T12:31:35.088Z,4.20
2022-11-14T12:34:08.459Z,2.67
2022-11-14T12:36:39.361Z,2.20
2022-11-14T12:39:07.293Z,2.25
2022-11-14T12:41:37.987Z,2.35
2022-11-14T12:44:19.896Z,2.83
2022-11-14T12:47:14.447Z,2.28
2022-11-14T12:50:01.358Z,1.98
2022-11-14T12:52:51.042Z,1.45
2022-11-14T12:55:56.676Z,4.75
2022-11-14T12:58:48.426Z,2.22
2022-11-14T13:01:38.607Z,1.98
2022-11-14T13:04:20.466Z,2.38
2022-11-14T13:07:02.058Z,1.88
2022-11-14T13:09:40.734Z,5.38
2022-11-14T13:12:58.282Z,2.03
2022-11-14T13:15:49.492Z,3.35
2022-11-14T13:18:41.572Z,3.95
2022-11-14T13:21:42.302Z,3.67
2022-11-14T13:24:13.727Z,4.95
2022-11-14T13:26:48.652Z,3.45
2022-11-14T13:29:59.948Z,3.65
2022-11-14T13:33:07.706Z,6.28
2022-11-14T13:35:49.949Z,3.80
2022-11-14T13:38:49.227Z,3.45
2022-11-14T13:41:47.397Z,2.75
2022-11-14T13:44:56.945Z,3.63
2022-11-14T13:47:37.730Z,2.67
2022-11-14T13:50:08.885Z,8.32
2022-11-14T13:52:43.011Z,4.32
2022-11-14T13:55:20.816Z,6.40
2022-11-14T13:58:03.422Z,5.68
2022-11-14T14:00:53.810Z,12.32
2022-11-14T14:03:37.560Z,5.55
2022-11-14T14:06:22.404Z,3.25
2022-11-14T14:09:02.844Z,2.85
2022-11-14T14:11:47.694Z,6.00
2022-11-14T14:14:36.859Z,4.70
2022-11-14T14:17:12.800Z,7.45
2022-11-14T14:19:56.788Z,5.60
2022-11-14T14:22:37.525Z,2.80
2022-11-14T14:25:14.668Z,5.60
2022-11-14T14:27:55.640Z,5.97
2022-11-14T14:30:24.291Z,4.15
2022-11-14T14:33:12.535Z,4.03
2022-11-14T14:35:49.738Z,2.97
2022-11-14T14:38:25.652Z,3.53
2022-11-14T14:40:56.014Z,4.10
2022-11-14T14:43:28.058Z,5.32
2022-11-14T14:45:56.478Z,3.92
2022-11-14T14:48:29.794Z,3.67
2022-11-14T14:50:59.897Z,5.43
2022-11-14T14:53:29.878Z,4.72
2022-11-14T14:55:59.673Z,6.35
2022-11-14T14:58:30.550Z,4.32
2022-11-14T15:01:01.133Z,3.08
2022-11-14T15:03:36.734Z,4.55
2022-11-14T15:06:09.375Z,5.70
2022-11-14T15:08:39.553Z,12.15
2022-11-14T15:11:08.071Z,7.90
2022-11-14T15:13:38.620Z,5.70
2022-11-14T15:16:07.736Z,6.72
2022-11-14T15:18:37.850Z,7.10
2022-11-14T15:21:17.234Z,4.75
2022-11-14T15:23:45.201Z,3.55
2022-11-14T15:26:16.694Z,6.38
2022-11-14T15:28:44.952Z,6.45
2022-11-14T15:31:19.802Z,4.97
2022-11-14T15:34:02.640Z,3.33
2022-11-14T15:36:30.530Z,5.38
2022-11-14T15:39:03.936Z,7.32
2022-11-14T15:41:32.621Z,5.68
2022-11-14T15:44:03.093Z,4.93
2022-11-14T15:46:46.622Z,5.15
2022-11-14T15:49:22.643Z,6.38
2022-11-14T15:51:53.149Z,6.93
2022-11-14T15:54:27.522Z,6.82
2022-11-14T15:56:57.462Z,6.63
2022-11-14T15:59:25.995Z,12.13
2022-11-14T16:01:57.538Z,4.53
2022-11-14T16:04:31.058Z,6.30
2022-11-14T16:06:59.048Z,6.00
2022-11-14T16:09:26.980Z,5.53
2022-11-14T16:11:54.868Z,5.50
2022-11-14T16:14:22.863Z,9.27
2022-11-14T16:16:50.742Z,6.03
2022-11-14T16:19:18.709Z,4.30
2022-11-14T16:21:47.980Z,5.47
2022-11-14T16:24:18.119Z,11.40
2022-11-14T16:26:46.424Z,8.15
2022-11-14T16:29:14.487Z,9.63
2022-11-14T16:31:42.455Z,6.38
2022-11-14T16:34:14.973Z,6.95
2022-11-14T16:36:45.167Z,8.43
2022-11-14T16:39:14.428Z,5.07
2022-11-14T16:41:42.691Z,4.65
2022-11-14T16:44:15.722Z,5.50
2022-11-14T16:46:43.957Z,5.13
2022-11-14T16:49:14.996Z,4.57
2022-11-14T16:51:48.422Z,10.82
2022-11-14T16:54:18.961Z,5.50
2022-11-14T16:56:47.236Z,6.45
2022-11-14T16:59:15.190Z,5.63
2022-11-14T17:01:43.344Z,8.55
2022-11-14T17:04:11.361Z,7.95
2022-11-14T17:06:39.685Z,6.00
2022-11-14T17:09:07.742Z,7.38
2022-11-14T17:11:37.002Z,6.55
2022-11-14T17:14:04.942Z,6.60
2022-11-14T17:16:32.831Z,10.68
2022-11-14T17:19:00.894Z,6.00
2022-11-14T17:21:29.040Z,6.50
2022-11-14T17:23:57.453Z,7.10
2022-11-14T17:26:25.367Z,9.07
2022-11-14T17:28:54.904Z,9.23
2022-11-14T17:31:22.974Z,8.00
2022-11-14T17:33:55.392Z,10.15
2022-11-14T17:36:24.137Z,10.65
2022-11-14T17:38:52.255Z,7.32
2022-11-14T17:41:20.502Z,7.25
2022-11-14T17:43:56.489Z,5.60
2022-11-14T17:46:24.398Z,6.35
2022-11-14T17:48:52.299Z,8.00
2022-11-14T17:51:20.234Z,6.15
2022-11-14T17:53:48.167Z,12.20
2022-11-14T17:56:17.415Z,7.22
2022-11-14T17:58:46.267Z,8.05
2022-11-14T18:01:17.305Z,7.40
2022-11-14T18:03:45.429Z,7.25
2022-11-14T18:06:15.243Z,8.45
2022-11-14T18:08:43.567Z,6.93
2022-11-14T18:11:14.360Z,6.18
2022-11-14T18:13:42.705Z,6.53
2022-11-14T18:16:13.849Z,8.73
2022-11-14T18:18:43.302Z,8.30
2022-11-14T18:21:13.761Z,6.68
2022-11-14T18:23:41.997Z,8.55
2022-11-14T18:26:11.335Z,7.20
2022-11-14T18:28:39.333Z,6.28
2022-11-14T18:31:10.524Z,6.32
2022-11-14T18:33:38.777Z,8.98
2022-11-14T18:36:11.490Z,7.45
2022-11-14T18:38:39.478Z,7.28
2022-11-14T18:41:10.126Z,7.95
2022-11-14T18:43:38.044Z,6.05
2022-11-14T18:46:10.868Z,10.20
2022-11-14T18:48:40.239Z,10.45
2022-11-14T18:51:12.693Z,8.10
2022-11-14T18:53:40.668Z,5.05
2022-11-14T18:56:10.622Z,9.57
2022-11-14T18:58:39.764Z,6.75
2022-11-14T19:01:12.565Z,7.32
2022-11-14T19:03:40.753Z,6.03
2022-11-14T19:06:12.299Z,6.40
2022-11-14T19:08:40.617Z,7.20
2022-11-14T19:11:30.760Z,4.20
2022-11-14T19:14:01.597Z,5.93
2022-11-14T19:16:31.104Z,5.57
2022-11-14T19:18:59.055Z,9.35
2022-11-14T19:21:28.951Z,10.10
2022-11-14T19:23:57.235Z,8.73
2022-11-14T19:26:25.350Z,4.88
2022-11-14T19:28:53.557Z,8.43
2022-11-14T19:31:22.678Z,4.55
2022-11-14T19:33:50.976Z,4.72
2022-11-14T19:36:38.532Z,12.63
2022-11-14T19:39:10.493Z,6.32
2022-11-14T19:41:38.477Z,4.68
2022-11-14T19:44:06.590Z,8.38
2022-11-14T19:46:36.690Z,3.70
2022-11-14T19:49:05.444Z,4.72
2022-11-14T19:51:33.799Z,4.40
2022-11-14T19:54:03.029Z,4.82
2022-11-14T19:56:32.236Z,5.97
2022-11-14T19:59:02.669Z,3.72
2022-11-14T20:01:30.657Z,4.15
2022-11-14T20:04:00.180Z,4.65
2022-11-14T20:06:29.986Z,4.22
2022-11-14T20:08:59.241Z,4.55
2022-11-14T20:11:29.005Z,7.30
2022-11-14T20:13:59.218Z,12.43
2022-11-14T20:16:29.312Z,6.75
2022-11-14T20:18:59.397Z,4.65
2022-11-14T20:21:29.158Z,5.22
2022-11-14T20:23:57.243Z,6.32
2022-11-14T20:26:25.698Z,3.65
2022-11-14T20:28:54.655Z,7.57
2022-11-14T20:31:25.493Z,7.35
2022-11-14T20:33:54.913Z,5.68
2022-11-14T20:36:25.035Z,3.25
2022-11-14T20:38:54.039Z,4.43
2022-11-14T20:41:22.445Z,4.53
2022-11-14T20:43:50.635Z,4.82
2022-11-14T20:46:20.173Z,3.88
2022-11-14T20:48:50.428Z,7.53
2022-11-14T20:51:19.863Z,3.00
2022-11-14T20:53:48.935Z,6.47
2022-11-14T20:56:17.875Z,6.80
2022-11-14T20:58:47.168Z,8.63
2022-11-14T21:01:16.131Z,5.57
2022-11-14T21:03:44.197Z,5.45
2022-11-14T21:06:15.082Z,7.50
2022-11-14T21:08:43.668Z,5.90
2022-11-14T21:11:15.792Z,5.82
2022-11-14T21:13:58.770Z,5.22
2022-11-14T21:16:30.512Z,8.73
2022-11-14T21:18:58.637Z,6.75
2022-11-14T21:21:28.632Z,4.90
2022-11-14T21:23:57.016Z,7.35
2022-11-14T21:26:26.884Z,4.82
2022-11-14T21:28:56.624Z,4.57
2022-11-14T21:31:26.275Z,4.35
2022-11-14T21:33:57.089Z,4.95
2022-11-14T21:39:17.461Z,5.38
2022-11-14T21:41:48.182Z,10.65
2022-11-14T21:44:17.863Z,10.88
2022-11-14T21:46:48.435Z,3.38
2022-11-14T21:49:16.823Z,3.75
2022-11-14T21:51:47.077Z,4.30
2022-11-14T21:54:15.089Z,4.05
2022-11-14T21:56:43.189Z,7.10
2022-11-14T21:59:15.480Z,6.25
2022-11-14T22:02:02.736Z,4.93
2022-11-14T22:04:31.641Z,5.15
2022-11-14T22:07:02.596Z,4.07
2022-11-14T22:09:31.075Z,5.13
2022-11-14T22:11:59.406Z,4.60
2022-11-14T22:14:27.351Z,4.88
2022-11-14T22:16:55.285Z,6.00
2022-11-14T22:19:23.369Z,5.35
2022-11-14T22:21:51.348Z,4.97
2022-11-14T22:24:20.581Z,4.65
2022-11-14T22:26:48.477Z,5.18
2022-11-14T22:29:16.614Z,3.88
2022-11-14T22:31:44.510Z,7.88
2022-11-14T22:34:12.664Z,4.63
2022-11-14T22:36:40.756Z,8.60
2022-11-14T22:39:08.626Z,4.82
2022-11-14T22:41:38.003Z,4.63
2022-11-14T22:44:06.221Z,10.30
2022-11-14T22:46:34.114Z,4.93
2022-11-14T22:49:03.800Z,6.78
2022-11-14T22:51:32.059Z,3.90
2022-11-14T22:54:00.039Z,6.13
2022-11-14T22:56:29.799Z,3.85
2022-11-14T22:59:00.340Z,5.00
2022-11-14T23:01:31.002Z,4.60
2022-11-14T23:04:00.960Z,5.55
2022-11-14T23:06:29.712Z,4.70
2022-11-14T23:08:58.322Z,4.85
2022-11-14T23:11:29.119Z,6.65
2022-11-14T23:13:59.774Z,7.82
2022-11-14T23:16:29.729Z,7.95
2022-11-14T23:19:00.115Z,4.68
2022-11-14T23:21:30.367Z,7.60
2022-11-14T23:23:59.948Z,11.80
2022-11-14T23:26:29.007Z,9.00
2022-11-14T23:28:58.475Z,6.88
2022-11-14T23:31:26.999Z,6.45
2022-11-14T23:33:57.704Z,4.32
2022-11-14T23:36:25.794Z,8.52
2022-11-14T23:38:54.049Z,6.82
2022-11-14T23:41:23.456Z,6.45
2022-11-14T23:43:51.354Z,5.55
2022-11-14T23:46:20.620Z,7.65
2022-11-14T23:48:48.748Z,6.93
2022-11-14T23:51:17.529Z,5.53
2022-11-14T23:53:46.816Z,11.25
2022-11-14T23:56:15.408Z,8.07
2022-11-14T23:58:43.712Z,5.50
